createdAt,value
2022-10-23T00:01:44.633Z,5.50
2022-10-23T00:04:16.027Z,5.46
2022-10-23T00:06:44.176Z,5.50
2022-10-23T00:09:13.064Z,5.42
2022-10-23T00:11:40.309Z,5.54
2022-10-23T00:14:08.480Z,5.46
2022-10-23T00:16:35.527Z,5.49
2022-10-23T00:19:02.863Z,5.49
2022-10-23T00:21:29.792Z,5.40
2022-10-23T00:23:56.790Z,5.43
2022-10-23T00:26:23.741Z,5.31
2022-10-23T00:28:52.667Z,5.38
2022-10-23T00:31:21.809Z,5.39
2022-10-23T00:33:48.779Z,5.33
2022-10-23T00:36:18.123Z,5.41
2022-10-23T00:38:46.300Z,5.29
2022-10-23T00:41:24.326Z,5.33
2022-10-23T00:44:30.982Z,5.37
2022-10-23T00:46:59.109Z,5.13
2022-10-23T00:49:26.253Z,5.30
2022-10-23T00:51:57.140Z,5.22
2022-10-23T00:54:27.414Z,5.31
2022-10-23T00:56:58.427Z,5.21
2022-10-23T00:59:26.498Z,5.23
2022-10-23T01:01:53.861Z,5.22
2022-10-23T01:04:30.467Z,5.32
2022-10-23T01:07:03.975Z,5.27
2022-10-23T01:09:45.835Z,5.35
2022-10-23T01:12:19.451Z,5.21
2022-10-23T01:15:10.387Z,5.41
2022-10-23T01:17:51.182Z,5.26
2022-10-23T01:20:27.485Z,5.24
2022-10-23T01:23:13.070Z,5.17
2022-10-23T01:26:19.307Z,5.31
2022-10-23T01:28:56.863Z,5.18
2022-10-23T01:31:51.331Z,5.22
2022-10-23T01:34:23.461Z,5.01
2022-10-23T01:36:52.693Z,5.10
2022-10-23T01:39:29.536Z,5.10
2022-10-23T01:42:04.912Z,4.99
2022-10-23T01:44:41.507Z,5.02
2022-10-23T01:47:11.438Z,5.03
2022-10-23T01:50:03.096Z,5.09
2022-10-23T01:52:30.565Z,5.18
2022-10-23T01:55:01.279Z,5.10
2022-10-23T01:57:34.240Z,5.15
2022-10-23T02:00:07.253Z,5.11
2022-10-23T02:02:52.486Z,5.28
2022-10-23T02:05:24.033Z,5.17
2022-10-23T02:07:52.517Z,5.19
2022-10-23T02:10:20.455Z,5.11
2022-10-23T02:13:17.463Z,5.18
2022-10-23T02:16:00.759Z,5.18
2022-10-23T02:18:30.973Z,5.18
2022-10-23T02:21:18.365Z,5.25
2022-10-23T02:24:11.804Z,5.20
2022-10-23T02:26:53.812Z,5.21
2022-10-23T02:29:30.372Z,5.20
2022-10-23T02:32:11.009Z,5.22
2022-10-23T02:34:40.571Z,5.26
2022-10-23T02:37:09.585Z,5.25
2022-10-23T02:39:36.643Z,5.21
2022-10-23T02:42:25.910Z,5.32
2022-10-23T02:45:09.130Z,5.17
2022-10-23T02:47:59.842Z,5.07
2022-10-23T02:50:38.915Z,4.92
2022-10-23T02:53:11.780Z,5.00
2022-10-23T02:55:38.660Z,4.93
2022-10-23T02:58:13.268Z,4.90
2022-10-23T03:00:50.573Z,4.88
2022-10-23T03:03:40.655Z,4.85
2022-10-23T03:06:08.289Z,4.82
2022-10-23T03:08:52.413Z,4.85
2022-10-23T03:11:19.602Z,4.78
2022-10-23T03:13:46.596Z,4.70
2022-10-23T03:16:13.609Z,4.74
2022-10-23T03:18:40.547Z,4.82
2022-10-23T03:21:08.347Z,4.67
2022-10-23T03:23:35.406Z,4.61
2022-10-23T03:26:02.796Z,4.69
2022-10-23T03:28:35.838Z,4.56
2022-10-23T03:31:03.965Z,4.52
2022-10-23T03:33:31.827Z,4.49
2022-10-23T03:36:07.218Z,4.41
2022-10-23T03:38:35.397Z,4.47
2022-10-23T03:41:03.704Z,4.38
2022-10-23T03:43:59.831Z,4.33
2022-10-23T03:46:26.863Z,4.46
2022-10-23T03:48:54.848Z,4.23
2022-10-23T03:51:22.973Z,4.37
2022-10-23T03:53:50.169Z,4.50
2022-10-23T03:56:17.226Z,4.39
2022-10-23T03:58:44.864Z,4.35
2022-10-23T04:01:13.400Z,4.24
2022-10-23T04:04:06.669Z,4.26
2022-10-23T04:06:35.284Z,4.31
2022-10-23T04:09:02.249Z,4.30
2022-10-23T04:11:29.494Z,4.27
2022-10-23T04:14:06.656Z,4.29
2022-10-23T04:16:37.872Z,4.29
2022-10-23T04:19:06.172Z,4.26
2022-10-23T04:21:33.269Z,4.37
2022-10-23T04:24:01.201Z,4.40
2022-10-23T04:26:54.199Z,4.28
2022-10-23T04:29:22.851Z,4.47
2022-10-23T04:31:49.821Z,4.52
2022-10-23T04:34:17.954Z,4.56
2022-10-23T04:36:47.304Z,4.40
2022-10-23T04:39:14.874Z,4.41
2022-10-23T04:41:41.858Z,4.29
2022-10-23T04:44:08.769Z,4.55
2022-10-23T04:46:38.886Z,4.50
2022-10-23T04:49:05.950Z,4.50
2022-10-23T04:51:50.831Z,4.59
2022-10-23T04:54:39.769Z,4.51
2022-10-23T04:57:26.919Z,4.75
2022-10-23T05:00:00.636Z,4.72
2022-10-23T05:02:29.825Z,4.84
2022-10-23T05:04:56.821Z,4.73
2022-10-23T05:07:36.507Z,4.81
2022-10-23T05:10:13.370Z,4.71
2022-10-23T05:13:04.292Z,4.71
2022-10-23T05:15:31.303Z,4.66
2022-10-23T05:18:13.419Z,4.83
2022-10-23T05:20:41.081Z,4.88
2022-10-23T05:23:13.654Z,4.67
2022-10-23T05:25:48.189Z,4.89
2022-10-23T05:28:17.662Z,4.96
2022-10-23T05:30:45.111Z,4.99
2022-10-23T05:33:12.089Z,4.98
2022-10-23T05:35:44.249Z,4.95
2022-10-23T05:38:14.570Z,4.92
2022-10-23T05:40:42.294Z,5.04
2022-10-23T05:43:14.457Z,5.05
2022-10-23T05:45:56.034Z,5.17
2022-10-23T05:48:41.314Z,5.20
2022-10-23T05:51:26.215Z,5.22
2022-10-23T05:54:04.805Z,5.18
2022-10-23T05:56:38.216Z,5.32
2022-10-23T05:59:11.045Z,5.31
2022-10-23T06:01:48.198Z,5.40
2022-10-23T06:04:20.580Z,5.42
2022-10-23T06:07:29.125Z,5.50
2022-10-23T06:10:00.005Z,5.58
2022-10-23T06:12:27.369Z,5.56
2022-10-23T06:14:54.418Z,5.66
2022-10-23T06:17:28.421Z,5.66
2022-10-23T06:19:55.370Z,5.60
2022-10-23T06:22:22.420Z,5.90
2022-10-23T06:24:54.562Z,6.07
2022-10-23T06:27:25.725Z,6.21
2022-10-23T06:29:56.124Z,6.09
2022-10-23T06:32:39.410Z,6.18
2022-10-23T06:35:34.231Z,5.93
2022-10-23T06:38:04.307Z,6.13
2022-10-23T06:40:39.557Z,5.93
2022-10-23T06:43:15.897Z,6.22
2022-10-23T06:46:07.139Z,6.04
2022-10-23T06:48:57.232Z,5.98
2022-10-23T06:51:29.873Z,5.92
2022-10-23T06:53:57.570Z,6.07
2022-10-23T06:56:43.262Z,6.16
2022-10-23T06:59:39.424Z,5.88
2022-10-23T07:02:26.334Z,5.91
2022-10-23T07:04:53.301Z,6.18
2022-10-23T07:07:21.624Z,6.05
2022-10-23T07:09:49.736Z,6.08
2022-10-23T07:12:48.519Z,6.15
2022-10-23T07:15:51.146Z,6.15
2022-10-23T07:18:23.304Z,6.12
2022-10-23T07:21:09.246Z,6.05
2022-10-23T07:23:38.821Z,6.17
2022-10-23T07:26:16.201Z,6.02
2022-10-23T07:29:00.245Z,6.28
2022-10-23T07:31:28.466Z,6.12
2022-10-23T07:34:33.612Z,6.21
2022-10-23T07:37:24.967Z,6.22
2022-10-23T07:39:51.846Z,6.42
2022-10-23T07:42:18.900Z,6.17
2022-10-23T07:44:46.339Z,6.37
2022-10-23T07:47:13.248Z,6.17
2022-10-23T07:49:43.665Z,6.37
2022-10-23T07:52:10.639Z,6.12
2022-10-23T07:54:57.571Z,6.24
2022-10-23T07:57:26.047Z,6.40
2022-10-23T08:00:07.849Z,6.24
2022-10-23T08:02:40.968Z,6.45
2022-10-23T08:05:10.337Z,6.70
2022-10-23T08:07:48.348Z,6.70
2022-10-23T08:10:16.804Z,6.71
2022-10-23T08:12:44.752Z,6.94
2022-10-23T08:15:13.066Z,7.12
2022-10-23T08:17:51.722Z,7.07
2022-10-23T08:20:39.281Z,7.17
2022-10-23T08:23:06.731Z,7.23
2022-10-23T08:25:33.975Z,7.20
2022-10-23T08:28:04.218Z,7.11
2022-10-23T08:30:39.457Z,7.46
2022-10-23T08:33:07.360Z,7.45
2022-10-23T08:35:38.664Z,7.27
2022-10-23T08:38:06.759Z,7.44
2022-10-23T08:40:44.933Z,7.26
2022-10-23T08:43:37.606Z,7.34
2022-10-23T08:46:25.367Z,7.32
2022-10-23T08:49:21.292Z,7.45
2022-10-23T08:52:13.304Z,7.52
2022-10-23T08:54:49.499Z,7.83
2022-10-23T08:57:18.684Z,7.57
2022-10-23T08:59:54.689Z,7.72
2022-10-23T09:02:25.051Z,7.87
2022-10-23T09:05:16.360Z,7.97
2022-10-23T09:08:05.370Z,7.88
2022-10-23T09:11:09.579Z,7.70
2022-10-23T09:13:50.374Z,7.52
2022-10-23T09:16:41.776Z,7.60
2022-10-23T09:19:20.208Z,7.61
2022-10-23T09:21:49.705Z,7.58
2022-10-23T09:24:20.083Z,7.70
2022-10-23T09:26:50.360Z,7.59
2022-10-23T09:29:29.338Z,7.67
2022-10-23T09:31:58.878Z,7.47
2022-10-23T09:34:28.478Z,7.77
2022-10-23T09:37:04.193Z,7.75
2022-10-23T09:39:34.069Z,7.87
2022-10-23T09:42:23.839Z,7.81
2022-10-23T09:44:53.871Z,7.82
2022-10-23T09:47:24.685Z,7.82
2022-10-23T09:49:54.220Z,8.13
2022-10-23T09:52:33.752Z,8.16
2022-10-23T09:55:03.121Z,8.22
2022-10-23T09:57:43.140Z,8.05
2022-10-23T10:00:19.939Z,8.35
2022-10-23T10:03:00.094Z,8.45
2022-10-23T10:06:04.874Z,8.44
2022-10-23T10:08:48.828Z,8.31
2022-10-23T10:11:24.763Z,8.39
2022-10-23T10:14:14.746Z,8.33
2022-10-23T10:16:54.610Z,8.21
2022-10-23T10:19:46.036Z,7.94
2022-10-23T10:22:37.176Z,7.88
2022-10-23T10:25:25.927Z,7.85
2022-10-23T10:28:19.704Z,7.89
2022-10-23T10:31:12.272Z,8.06
2022-10-23T10:33:52.272Z,8.19
2022-10-23T10:36:31.179Z,8.07
2022-10-23T10:39:03.915Z,7.91
2022-10-23T10:41:58.938Z,7.84
2022-10-23T10:45:00.959Z,7.76
2022-10-23T10:47:41.569Z,8.06
2022-10-23T10:50:22.142Z,7.92
2022-10-23T10:54:07.744Z,7.85
2022-10-23T10:56:41.888Z,7.94
2022-10-23T10:59:29.309Z,7.96
2022-10-23T11:02:26.088Z,8.02
2022-10-23T11:05:00.240Z,8.04
2022-10-23T11:07:37.176Z,7.91
2022-10-23T11:10:16.023Z,8.04
2022-10-23T11:12:45.978Z,7.85
2022-10-23T11:15:20.786Z,7.97
2022-10-23T11:17:53.441Z,7.99
2022-10-23T11:20:56.807Z,7.90
2022-10-23T11:23:45.320Z,7.93
2022-10-23T11:26:20.270Z,8.12
2022-10-23T11:29:14.216Z,8.09
2022-10-23T11:32:02.671Z,8.09
2022-10-23T11:34:44.336Z,8.09
2022-10-23T11:37:16.923Z,8.11
2022-10-23T11:39:58.510Z,8.01
2022-10-23T11:42:40.595Z,8.07
2022-10-23T11:45:37.367Z,8.19
2022-10-23T11:48:39.514Z,8.29
2022-10-23T11:51:26.183Z,8.04
2022-10-23T11:53:53.161Z,8.19
2022-10-23T11:56:19.915Z,8.14
2022-10-23T11:58:52.258Z,7.86
2022-10-23T12:01:34.874Z,8.10
2022-10-23T12:04:14.197Z,8.15
2022-10-23T12:07:36.928Z,8.18
2022-10-23T12:10:23.029Z,8.05
2022-10-23T12:13:03.417Z,8.18
2022-10-23T12:15:33.003Z,8.00
2022-10-23T12:18:27.607Z,8.20
2022-10-23T12:20:58.675Z,8.00
2022-10-23T12:23:50.126Z,8.02
2022-10-23T12:26:16.989Z,7.99
2022-10-23T12:29:03.980Z,8.11
2022-10-23T12:31:33.741Z,8.12
2022-10-23T12:34:22.851Z,8.19
2022-10-23T12:37:11.527Z,7.96
2022-10-23T12:39:38.694Z,8.08
2022-10-23T12:42:17.433Z,8.05
2022-10-23T12:44:44.456Z,7.98
2022-10-23T12:47:18.181Z,7.98
2022-10-23T12:49:50.602Z,7.98
2022-10-23T12:52:19.903Z,8.04
2022-10-23T12:55:14.626Z,8.14
2022-10-23T12:57:42.568Z,8.13
2022-10-23T13:00:11.183Z,8.01
2022-10-23T13:02:38.237Z,8.15
2022-10-23T13:05:11.695Z,8.06
2022-10-23T13:07:44.356Z,8.10
2022-10-23T13:10:16.304Z,8.18
2022-10-23T13:13:04.009Z,8.26
2022-10-23T13:15:45.586Z,8.32
2022-10-23T13:18:14.697Z,8.28
2022-10-23T13:23:35.230Z,8.22
2022-10-23T13:26:06.849Z,8.35
2022-10-23T13:28:44.650Z,8.27
2022-10-23T13:31:14.581Z,8.42
2022-10-23T13:34:04.447Z,8.43
2022-10-23T13:36:36.335Z,8.16
2022-10-23T13:39:14.756Z,8.24
2022-10-23T13:41:44.610Z,8.24
2022-10-23T13:44:14.143Z,8.01
2022-10-23T13:46:41.597Z,8.10
2022-10-23T13:49:08.615Z,8.03
2022-10-23T13:51:53.880Z,8.20
2022-10-23T13:56:56.535Z,8.08
2022-10-23T13:59:46.982Z,8.20
2022-10-23T14:02:20.723Z,8.32
2022-10-23T14:04:48.914Z,8.09
2022-10-23T14:07:16.126Z,7.95
2022-10-23T14:09:51.414Z,8.09
2022-10-23T14:12:18.360Z,8.05
2022-10-23T14:14:45.227Z,7.97
2022-10-23T14:17:15.162Z,7.88
2022-10-23T14:19:42.060Z,7.86
2022-10-23T14:22:08.948Z,7.72
2022-10-23T14:24:36.118Z,7.69
2022-10-23T14:27:03.223Z,7.73
2022-10-23T14:29:30.335Z,7.67
2022-10-23T14:31:57.231Z,7.65
2022-10-23T14:34:24.166Z,7.83
2022-10-23T14:37:03.866Z,8.04
2022-10-23T14:39:34.786Z,7.85
2022-10-23T14:42:01.648Z,7.80
2022-10-23T14:44:28.596Z,7.70
2022-10-23T14:46:55.693Z,7.75
2022-10-23T14:49:22.617Z,7.91
2022-10-23T14:51:49.675Z,8.05
2022-10-23T14:54:16.774Z,7.96
2022-10-23T14:56:44.694Z,8.01
2022-10-23T14:59:11.638Z,7.97
2022-10-23T15:01:43.877Z,7.96
2022-10-23T15:04:12.841Z,8.06
2022-10-23T15:06:39.722Z,7.81
2022-10-23T15:09:06.805Z,7.97
2022-10-23T15:11:33.957Z,7.95
2022-10-23T15:14:01.602Z,7.99
2022-10-23T15:16:31.673Z,8.10
2022-10-23T15:18:59.815Z,8.05
2022-10-23T15:21:27.167Z,7.97
2022-10-23T15:24:06.160Z,7.89
2022-10-23T15:26:43.083Z,7.86
2022-10-23T15:29:17.299Z,7.88
2022-10-23T15:32:09.698Z,8.08
2022-10-23T15:34:43.907Z,7.91
2022-10-23T15:37:16.513Z,7.88
2022-10-23T15:39:52.119Z,8.02
2022-10-23T15:42:28.213Z,8.06
2022-10-23T15:45:34.777Z,8.12
2022-10-23T15:48:05.325Z,8.11
2022-10-23T15:54:20.401Z,8.12
2022-10-23T15:59:54.554Z,8.01
2022-10-23T16:02:48.232Z,8.16
2022-10-23T16:05:18.018Z,8.15
2022-10-23T16:07:53.458Z,8.09
2022-10-23T16:10:50.108Z,8.15
2022-10-23T16:13:21.942Z,8.07
2022-10-23T16:15:50.558Z,8.14
2022-10-23T16:18:18.562Z,8.20
2022-10-23T16:20:50.522Z,8.16
2022-10-23T16:23:23.378Z,8.18
2022-10-23T16:25:50.321Z,8.16
2022-10-23T16:28:39.492Z,8.30
2022-10-23T16:31:20.198Z,8.20
2022-10-23T16:33:50.720Z,8.32
2022-10-23T16:36:18.816Z,8.26
2022-10-23T16:39:24.215Z,8.27
2022-10-23T16:42:09.775Z,8.44
2022-10-23T16:44:57.082Z,8.41
2022-10-23T16:47:24.340Z,8.43
2022-10-23T16:49:56.819Z,8.43
2022-10-23T16:53:03.874Z,8.51
2022-10-23T16:55:22.545Z,8.56
2022-10-23T16:57:51.829Z,8.55
2022-10-23T17:00:22.660Z,8.59
2022-10-23T17:02:54.123Z,8.59
2022-10-23T17:05:25.535Z,8.56
2022-10-23T17:07:55.805Z,8.69
2022-10-23T17:10:32.294Z,8.69
2022-10-23T17:13:03.816Z,8.61
2022-10-23T17:15:30.748Z,8.46
2022-10-23T17:17:59.994Z,8.60
2022-10-23T17:20:29.287Z,8.68
2022-10-23T17:22:56.569Z,8.54
2022-10-23T17:25:23.571Z,8.48
2022-10-23T17:27:50.604Z,8.52
2022-10-23T17:30:18.187Z,8.55
2022-10-23T17:32:47.503Z,8.44
2022-10-23T17:35:18.511Z,8.56
2022-10-23T17:37:45.775Z,8.56
2022-10-23T17:40:14.963Z,8.49
2022-10-23T17:42:42.424Z,8.49
2022-10-23T17:45:10.753Z,8.72
2022-10-23T17:47:38.193Z,8.68
2022-10-23T17:50:06.079Z,8.72
2022-10-23T17:52:38.504Z,8.60
2022-10-23T17:55:10.214Z,8.44
2022-10-23T17:57:37.437Z,8.43
2022-10-23T18:00:06.005Z,8.70
2022-10-23T18:02:39.641Z,8.73
2022-10-23T18:05:07.067Z,8.65
2022-10-23T18:07:33.988Z,8.71
2022-10-23T18:10:00.972Z,8.66
2022-10-23T18:12:30.954Z,8.61
2022-10-23T18:14:58.038Z,8.66
2022-10-23T18:17:26.468Z,8.51
2022-10-23T18:19:59.560Z,8.53
2022-10-23T18:22:29.961Z,8.51
2022-10-23T18:24:58.680Z,8.40
2022-10-23T18:27:30.356Z,8.53
2022-10-23T18:29:58.708Z,8.52
2022-10-23T18:32:26.943Z,8.47
2022-10-23T18:34:54.325Z,8.49
2022-10-23T18:37:28.883Z,8.54
2022-10-23T18:40:02.534Z,8.45
2022-10-23T18:42:29.552Z,8.44
2022-10-23T18:44:59.763Z,8.36
2022-10-23T18:47:30.918Z,8.47
2022-10-23T18:50:01.433Z,8.45
2022-10-23T18:52:29.159Z,8.45
2022-10-23T18:54:59.443Z,8.47
2022-10-23T18:57:26.571Z,8.41
2022-10-23T18:59:56.487Z,8.53
2022-10-23T19:02:38.000Z,8.40
2022-10-23T19:05:07.213Z,8.46
2022-10-23T19:07:35.250Z,8.43
2022-10-23T19:10:02.434Z,8.53
2022-10-23T19:12:29.324Z,8.47
2022-10-23T19:14:56.250Z,8.58
2022-10-23T19:17:29.087Z,8.43
2022-10-23T19:20:01.840Z,8.55
2022-10-23T19:22:35.251Z,8.48
2022-10-23T19:25:08.673Z,8.49
2022-10-23T19:27:43.612Z,8.60
2022-10-23T19:30:12.071Z,8.45
2022-10-23T19:32:44.147Z,8.44
2022-10-23T19:35:13.882Z,8.61
2022-10-23T19:38:07.035Z,8.61
2022-10-23T19:41:00.021Z,8.55
2022-10-23T19:43:27.458Z,8.39
2022-10-23T19:45:54.237Z,8.47
2022-10-23T19:48:21.269Z,8.41
2022-10-23T19:50:50.293Z,8.49
2022-10-23T19:53:17.204Z,8.23
2022-10-23T19:56:33.037Z,8.53
2022-10-23T19:59:00.178Z,8.48
2022-10-23T20:01:27.422Z,8.26
2022-10-23T20:04:13.114Z,8.39
2022-10-23T20:06:40.456Z,8.32
2022-10-23T20:09:08.771Z,8.38
2022-10-23T20:11:38.869Z,8.44
2022-10-23T20:14:06.781Z,8.47
2022-10-23T20:16:36.887Z,8.33
2022-10-23T20:19:07.331Z,8.51
2022-10-23T20:21:44.008Z,8.50
2022-10-23T20:24:13.951Z,8.32
2022-10-23T20:26:43.051Z,8.31
2022-10-23T20:29:10.791Z,8.39
2022-10-23T20:31:37.935Z,8.33
2022-10-23T20:34:05.680Z,8.38
2022-10-23T20:36:43.742Z,8.43
2022-10-23T20:39:17.623Z,8.42
2022-10-23T20:41:44.620Z,8.33
2022-10-23T20:44:14.323Z,8.41
2022-10-23T20:46:42.059Z,8.26
2022-10-23T20:49:09.650Z,8.21
2022-10-23T20:51:36.718Z,8.28
2022-10-23T20:54:04.569Z,8.28
2022-10-23T20:56:34.144Z,8.39
2022-10-23T20:59:11.033Z,8.42
2022-10-23T21:01:49.655Z,8.51
2022-10-23T21:04:19.748Z,8.52
2022-10-23T21:07:08.971Z,8.58
2022-10-23T21:09:36.668Z,8.41
2022-10-23T21:12:03.735Z,8.40
2022-10-23T21:14:30.707Z,8.37
2022-10-23T21:16:57.556Z,8.45
2022-10-23T21:19:24.506Z,8.44
2022-10-23T21:21:59.952Z,8.39
2022-10-23T21:24:26.933Z,8.40
2022-10-23T21:26:53.760Z,8.35
2022-10-23T21:29:20.944Z,8.26
2022-10-23T21:31:55.642Z,8.49
2022-10-23T21:34:24.013Z,8.51
2022-10-23T21:37:11.932Z,8.49
2022-10-23T21:39:38.370Z,8.46
2022-10-23T21:42:05.273Z,8.57
2022-10-23T21:44:32.140Z,8.52
2022-10-23T21:46:58.937Z,8.59
2022-10-23T21:49:25.944Z,8.56
2022-10-23T21:51:52.762Z,8.49
2022-10-23T21:54:19.631Z,8.47
2022-10-23T21:56:48.770Z,8.39
2022-10-23T21:59:42.021Z,8.43
2022-10-23T22:02:09.036Z,8.43
2022-10-23T22:04:36.449Z,8.37
2022-10-23T22:07:04.536Z,8.33
2022-10-23T22:09:32.790Z,8.38
2022-10-23T22:12:00.852Z,8.58
2022-10-23T22:14:28.203Z,8.51
2022-10-23T22:16:55.154Z,8.47
2022-10-23T22:19:22.951Z,8.40
2022-10-23T22:21:50.995Z,8.45
2022-10-23T22:24:18.630Z,8.46
2022-10-23T22:26:52.137Z,8.39
2022-10-23T22:29:21.848Z,8.46
2022-10-23T22:31:50.101Z,8.59
2022-10-23T22:37:12.102Z,8.66
2022-10-23T22:39:39.475Z,8.51
2022-10-23T22:42:11.794Z,8.49
2022-10-23T22:44:38.800Z,8.56
2022-10-23T22:47:05.915Z,8.39
2022-10-23T22:49:33.029Z,8.51
2022-10-23T22:52:00.152Z,8.45
2022-10-23T22:54:27.595Z,8.48
2022-10-23T22:56:54.502Z,8.40
2022-10-23T22:59:21.373Z,8.43
2022-10-23T23:01:51.392Z,8.28
2022-10-23T23:04:37.418Z,8.27
2022-10-23T23:07:11.288Z,8.40
2022-10-23T23:09:43.455Z,8.39
2022-10-23T23:12:39.671Z,8.29
2022-10-23T23:15:07.351Z,8.30
2022-10-23T23:17:34.126Z,8.30
2022-10-23T23:20:01.103Z,8.41
2022-10-23T23:22:28.016Z,8.25
2022-10-23T23:24:55.066Z,8.18
2022-10-23T23:27:21.931Z,8.14
2022-10-23T23:29:49.182Z,8.29
2022-10-23T23:32:16.026Z,8.18
2022-10-23T23:34:43.014Z,8.25
2022-10-23T23:37:21.734Z,8.09
2022-10-23T23:40:06.928Z,8.32
2022-10-23T23:42:33.765Z,8.21
2022-10-23T23:45:13.610Z,8.20
2022-10-23T23:47:41.845Z,8.30
2022-10-23T23:50:11.161Z,8.22
2022-10-23T23:52:41.345Z,8.23
2022-10-23T23:55:08.570Z,8.24
2022-10-23T23:57:35.798Z,8.22
